Time;durP1;ratioP1;P1;durP2;ratioP2;P2;SDS_P1;SDS_P2;PMS_P1;PMS_P2;Temp;Humidity;BMP_temperature;BMP_pressure;BME280_temperature;BME280_humidity;BME280_pressure;Samples;Min_cycle;Max_cycle;Signal;HPM_P1;HPM_P2
2020/12/21 00:02:01;;;;;;;15.63;7.82;;;9.30;99.90;;;9.37;79.52;101717.44;5072689;28;20052;-78
2020/12/21 00:04:30;;;;;;;14.25;7.82;;;9.30;99.90;;;9.55;79.38;101754.66;5073559;28;20490;-78
2020/12/21 00:06:59;;;;;;;16.52;8.20;;;9.30;99.90;;;9.49;79.37;101737.84;5073629;28;20044;-78
2020/12/21 00:09:26;;;;;;;14.55;7.90;;;9.30;99.90;;;9.55;79.38;101741.47;5072550;28;20450;-78
2020/12/21 00:11:53;;;;;;;17.85;7.95;;;9.30;99.90;;;9.33;79.67;101707.69;5073442;28;20093;-78
2020/12/21 00:14:21;;;;;;;15.52;7.95;;;9.30;99.90;;;9.47;79.94;101731.66;5073660;28;20040;-78
2020/12/21 00:16:50;;;;;;;15.43;7.72;;;9.30;99.90;;;9.47;79.68;101726.38;5072355;28;20485;-78
2020/12/21 00:19:19;;;;;;;16.55;8.45;;;9.30;99.90;;;9.47;79.73;101719.34;5073624;28;20075;-78
2020/12/21 00:21:52;;;;;;;18.52;8.18;;;9.30;99.90;;;7.06;79.36;101275.56;5073582;28;20494;-78
2020/12/21 00:24:20;;;;;;;19.67;8.57;;;9.30;99.90;;;9.61;79.64;101724.81;5073228;28;20076;-78
2020/12/21 00:26:49;;;;;;;17.33;7.97;;;9.40;99.90;;;9.63;79.33;101723.06;5073517;28;20064;-78
2020/12/21 00:29:18;;;;;;;13.65;8.07;;;9.40;99.90;;;9.61;79.57;101733.63;5073444;28;20049;-78
2020/12/21 00:31:47;;;;;;;19.35;8.73;;;9.40;99.90;;;9.64;79.19;101738.94;5072665;28;20060;-78
2020/12/21 00:34:15;;;;;;;19.42;9.15;;;9.40;99.90;;;9.44;79.67;101706.09;5073326;28;20044;-78
2020/12/21 00:36:47;;;;;;;21.05;8.70;;;9.40;99.90;;;9.56;79.65;101718.59;5073316;28;20064;-78
2020/12/21 00:39:15;;;;;;;23.35;8.88;;;9.40;99.90;;;9.39;79.96;101710.44;5073286;28;20122;-77
2020/12/21 00:41:43;;;;;;;24.08;9.02;;;9.40;99.90;;;9.62;79.90;101723.97;5073332;28;20099;-79
2020/12/21 00:44:11;;;;;;;20.70;8.25;;;9.40;99.90;;;9.27;79.64;101668.00;5071865;28;20494;-78
2020/12/21 00:46:39;;;;;;;20.38;9.52;;;9.40;99.90;;;9.63;79.80;101721.31;5073058;28;20135;-77
2020/12/21 00:49:07;;;;;;;23.40;9.38;;;9.40;99.90;;;9.55;79.59;101709.78;5073055;28;20036;-78
2020/12/21 00:51:36;;;;;;;20.48;9.73;;;9.40;99.90;;;9.54;79.95;101710.63;5071733;28;20114;-78
2020/12/21 00:54:04;;;;;;;19.85;9.05;;;9.40;99.90;;;9.59;79.66;101705.41;5073239;28;20037;-79
2020/12/21 00:56:34;;;;;;;17.42;9.00;;;9.30;99.90;;;9.54;80.25;101704.47;5072912;28;20047;-78
2020/12/21 00:59:01;;;;;;;21.38;8.93;;;9.30;99.90;;;9.51;79.83;101707.06;5072624;28;20044;-78
2020/12/21 01:01:30;;;;;;;22.35;9.02;;;9.30;99.90;;;9.40;79.72;101674.34;5072847;28;20045;-78
2020/12/21 01:04:02;;;;;;;23.33;9.48;;;9.30;99.90;;;9.56;79.52;101702.75;5073072;28;20052;-80
2020/12/21 01:06:31;;;;;;;21.88;8.43;;;9.30;99.90;;;9.52;79.79;101707.09;5072729;28;20084;-79
2020/12/21 01:09:00;;;;;;;19.30;8.68;;;9.30;99.90;;;9.62;79.71;101713.41;5072414;28;20477;-79
2020/12/21 01:11:29;;;;;;;18.70;9.20;;;9.40;99.90;;;9.56;79.43;101706.25;5072938;28;20131;-78
2020/12/21 01:13:58;;;;;;;21.52;9.10;;;9.40;99.90;;;9.55;79.94;101712.41;5072620;28;20044;-79
2020/12/21 01:16:26;;;;;;;18.02;8.45;;;9.30;99.90;;;9.63;79.79;101717.78;5072624;28;20063;-78
2020/12/21 01:18:53;;;;;;;25.15;8.10;;;9.40;99.90;;;9.54;80.15;101700.06;5072294;28;20044;-79
2020/12/21 01:21:29;;;;;;;20.45;8.93;;;9.40;99.90;;;9.43;80.15;101693.75;5072817;28;20486;-78
2020/12/21 01:23:57;;;;;;;22.83;8.32;;;9.40;99.90;;;9.32;79.79;101671.63;5072194;28;20045;-79
2020/12/21 01:26:25;;;;;;;16.90;7.97;;;9.30;99.90;;;9.53;80.01;101707.97;5072139;28;20115;-79
2020/12/21 01:28:53;;;;;;;18.38;7.75;;;9.30;99.90;;;9.51;80.22;101718.53;5072119;28;20095;-78
2020/12/21 01:31:22;;;;;;;18.77;7.15;;;9.30;99.90;;;8.66;80.41;101575.69;5072402;28;20440;-79
2020/12/21 01:33:51;;;;;;;21.35;8.25;;;9.30;99.90;;;9.39;80.56;101725.41;5072408;28;20048;-78
2020/12/21 01:36:20;;;;;;;24.08;8.45;;;9.20;99.90;;;9.41;81.12;101721.91;5072316;28;20045;-78
2020/12/21 01:38:48;;;;;;;20.52;7.43;;;9.20;99.90;;;9.41;81.33;101723.63;5071072;28;20106;-76
2020/12/21 01:41:16;;;;;;;18.00;7.43;;;9.20;99.90;;;9.27;81.25;101702.31;5072363;28;20060;-78
2020/12/21 01:43:43;;;;;;;22.58;7.70;;;9.20;99.90;;;9.46;80.95;101730.78;5072470;28;20083;-78
2020/12/21 01:46:13;;;;;;;22.27;8.57;;;9.20;99.90;;;9.49;80.88;101733.47;5072206;28;20037;-79
2020/12/21 01:48:43;;;;;;;16.95;8.50;;;9.20;99.90;;;9.25;81.08;101690.00;5072257;28;20049;-78
2020/12/21 01:51:23;;;;;;;17.35;7.82;;;9.30;99.90;;;9.49;80.97;101727.28;5072059;28;20429;-78
2020/12/21 01:53:51;;;;;;;22.33;8.95;;;9.30;99.90;;;9.32;80.73;101695.38;5072163;28;20056;-79
2020/12/21 01:56:19;;;;;;;19.88;7.80;;;9.30;99.90;;;9.57;80.62;101730.91;5070903;28;20048;-79
2020/12/21 01:58:48;;;;;;;17.15;8.27;;;9.30;99.90;;;9.36;80.34;101704.22;5072083;28;20045;-78
2020/12/21 02:01:18;;;;;;;18.67;8.30;;;9.30;99.90;;;9.56;80.18;101730.00;5072111;28;20040;-77
2020/12/21 02:03:48;;;;;;;17.10;8.65;;;9.30;99.90;;;9.55;80.42;101722.97;5070943;28;20056;-78
2020/12/21 02:06:17;;;;;;;17.45;7.50;;;9.30;99.90;;;9.58;80.00;101720.38;5071938;28;20049;-78
2020/12/21 02:08:45;;;;;;;17.67;7.63;;;9.30;99.90;;;9.53;80.54;101719.44;5072001;28;20048;-78
2020/12/21 02:11:13;;;;;;;18.73;7.22;;;9.30;99.90;;;9.56;80.51;101718.59;5072110;28;20105;-79
2020/12/21 02:13:42;;;;;;;20.85;8.23;;;9.30;99.90;;;9.39;80.18;101688.44;5071880;28;20050;-76
2020/12/21 02:16:14;;;;;;;14.95;7.18;;;9.40;99.90;;;9.55;79.93;101728.25;5072059;28;20072;-79
2020/12/21 02:18:43;;;;;;;20.80;7.78;;;9.40;99.90;;;9.64;80.27;101715.16;5070789;28;20044;-78
2020/12/21 02:21:11;;;;;;;21.83;8.10;;;9.40;99.90;;;9.58;79.89;101717.72;5071673;28;20113;-79
2020/12/21 02:23:38;;;;;;;18.95;7.85;;;9.40;99.90;;;9.50;80.01;101723.78;5072208;28;20044;-78
2020/12/21 02:26:06;;;;;;;21.38;7.38;;;9.30;99.90;;;9.56;80.16;101713.31;5071825;28;20040;-79
2020/12/21 02:28:34;;;;;;;17.60;7.55;;;9.40;99.90;;;9.58;80.15;101708.94;5071686;28;20037;-78
2020/12/21 02:31:01;;;;;;;14.50;6.82;;;9.40;99.90;;;9.60;79.92;101707.19;5071773;28;20067;-79
2020/12/21 02:33:29;;;;;;;17.02;8.35;;;9.40;99.90;;;9.37;80.01;101683.13;5071843;28;20049;-78
2020/12/21 02:35:57;;;;;;;22.30;7.55;;;9.40;99.90;;;9.50;79.98;101707.94;5071816;28;20051;-79
2020/12/21 02:38:25;;;;;;;23.05;7.60;;;9.40;99.90;;;9.54;79.78;101710.63;5071565;28;20109;-78
2020/12/21 02:40:53;;;;;;;15.82;7.65;;;9.40;99.90;;;9.59;79.74;101708.06;5071926;28;20067;-79
2020/12/21 02:43:20;;;;;;;20.98;7.75;;;9.40;99.90;;;9.56;79.79;101710.66;5071784;28;20102;-79
2020/12/21 02:45:48;;;;;;;20.85;7.80;;;9.40;99.90;;;9.50;80.02;101703.56;5071369;28;20037;-79
2020/12/21 02:48:15;;;;;;;20.77;7.85;;;9.40;99.90;;;9.31;80.88;101693.59;5071901;28;20044;-78
2020/12/21 02:50:43;;;;;;;20.00;6.93;;;9.20;99.90;;;9.44;80.61;101698.19;5071324;28;20520;-78
2020/12/21 02:53:11;;;;;;;21.20;7.68;;;9.20;99.90;;;9.45;80.29;101705.22;5071360;28;20132;-78
2020/12/21 02:55:39;;;;;;;21.17;7.93;;;9.30;99.90;;;8.95;80.35;101616.53;5074152;28;20041;-80
2020/12/21 02:58:07;;;;;;;18.40;7.45;;;9.30;99.90;;;9.35;80.08;101702.47;5075289;28;20045;-78
2020/12/21 03:00:35;;;;;;;22.40;7.78;;;9.30;99.90;;;9.31;80.43;101711.19;5075201;28;20379;-78
2020/12/21 03:03:03;;;;;;;15.27;7.28;;;9.20;99.90;;;9.37;80.06;101713.94;5074877;28;20374;-79
2020/12/21 03:05:31;;;;;;;24.95;7.05;;;9.20;99.90;;;9.29;80.78;101700.59;5075039;28;20386;-79
2020/12/21 03:07:59;;;;;;;15.90;7.07;;;9.20;99.90;;;9.38;80.64;101705.13;5075104;28;20072;-79
2020/12/21 03:10:27;;;;;;;18.20;7.63;;;9.20;99.90;;;9.14;80.48;101659.94;5074592;28;20052;-78
2020/12/21 03:12:55;;;;;;;16.52;7.40;;;9.20;99.90;;;9.21;80.43;101664.41;5073612;28;20432;-78
2020/12/21 03:15:23;;;;;;;16.95;7.13;;;9.20;99.90;;;9.29;80.08;101695.31;5074864;28;20048;-77
2020/12/21 03:17:50;;;;;;;15.82;8.15;;;9.20;99.90;;;9.02;80.41;101687.00;5074580;28;20033;-79
2020/12/21 03:20:18;;;;;;;19.33;6.78;;;9.00;99.90;;;8.90;81.14;101673.66;5074519;28;20048;-78
2020/12/21 03:22:47;;;;;;;16.25;7.50;;;9.00;99.90;;;9.10;80.95;101699.47;5074835;28;20086;-78
2020/12/21 03:25:15;;;;;;;18.17;7.22;;;9.00;99.90;;;9.20;80.91;101696.94;5074564;28;20049;-79
2020/12/21 03:27:44;;;;;;;17.25;7.25;;;9.00;99.90;;;7.04;80.86;101333.41;5074689;28;20044;-78
2020/12/21 03:30:13;;;;;;;15.77;7.40;;;9.00;99.90;;;9.14;80.86;101697.75;5074345;28;20060;-78
2020/12/21 03:32:42;;;;;;;19.80;7.47;;;9.00;99.90;;;9.14;80.99;101703.03;5074395;28;20048;-79
2020/12/21 03:35:26;;;;;;;16.75;7.18;;;9.00;99.90;;;7.38;80.47;101384.84;5074585;28;20464;-79
2020/12/21 03:37:53;;;;;;;20.58;7.60;;;9.00;99.90;;;8.90;81.04;101668.38;5074195;28;20040;-79
2020/12/21 03:40:21;;;;;;;18.38;6.65;;;9.00;99.90;;;8.94;81.55;101704.50;5074428;28;20040;-79
2020/12/21 03:42:48;;;;;;;20.25;8.15;;;8.90;99.90;;;8.65;81.72;101653.03;5074450;28;20051;-79
2020/12/21 03:45:17;;;;;;;22.10;8.70;;;8.80;99.90;;;8.75;82.40;101705.06;5073983;28;20041;-79
2020/12/21 03:47:45;;;;;;;23.80;7.93;;;8.70;99.90;;;8.55;83.53;101685.38;5074330;28;20044;-79
2020/12/21 03:50:12;;;;;;;23.23;8.20;;;8.60;99.90;;;8.59;83.53;101689.84;5073926;28;20063;-79
2020/12/21 03:52:40;;;;;;;18.77;8.27;;;8.60;99.90;;;8.58;84.01;101688.94;5073923;28;20040;-79
2020/12/21 03:55:07;;;;;;;21.83;7.63;;;8.60;99.90;;;8.66;83.97;101679.41;5074403;28;20044;-78
2020/12/21 03:57:35;;;;;;;26.77;8.48;;;8.60;99.90;;;8.78;83.81;101669.06;5072811;28;20433;-78
2020/12/21 04:00:04;;;;;;;19.33;8.43;;;8.70;99.90;;;8.30;84.21;101627.84;5073991;28;20421;-78
2020/12/21 04:02:40;;;;;;;19.88;8.70;;;8.60;99.90;;;8.39;85.15;101649.06;5073805;28;20041;-78
2020/12/21 04:05:08;;;;;;;24.95;8.77;;;8.40;99.90;;;7.93;84.69;101549.88;5074261;28;20051;-78
2020/12/21 04:07:36;;;;;;;23.52;8.10;;;8.50;99.90;;;8.34;85.01;101624.38;5072630;28;20040;-79
2020/12/21 04:10:06;;;;;;;21.98;8.32;;;8.50;99.90;;;8.42;85.14;101651.78;5073471;28;20044;-78
2020/12/21 04:12:33;;;;;;;18.80;7.97;;;8.40;99.90;;;8.53;85.03;101653.72;5074204;28;20062;-78
2020/12/21 04:15:01;;;;;;;22.45;8.70;;;8.40;99.90;;;8.52;85.02;101667.75;5073790;28;20041;-78
2020/12/21 04:17:29;;;;;;;22.65;8.40;;;8.60;99.90;;;8.57;84.75;101630.91;5073732;28;20145;-79
2020/12/21 04:20:01;;;;;;;18.88;8.20;;;8.50;99.90;;;8.61;84.58;101636.28;5073354;28;20382;-79
2020/12/21 04:22:28;;;;;;;24.60;8.85;;;8.50;99.90;;;8.66;84.03;101633.69;5073839;28;20481;-77
2020/12/21 04:24:56;;;;;;;22.67;8.57;;;8.60;99.90;;;8.81;84.24;101639.19;5073165;28;20063;-78
2020/12/21 04:27:23;;;;;;;21.73;8.82;;;8.70;99.90;;;8.84;83.99;101631.34;5073519;28;20044;-79
2020/12/21 04:29:51;;;;;;;22.15;8.70;;;8.70;99.90;;;8.87;83.54;101636.66;5073576;28;20102;-77
2020/12/21 04:32:18;;;;;;;18.90;8.60;;;8.80;99.90;;;8.56;83.70;101584.31;5073229;28;20421;-79
2020/12/21 04:34:45;;;;;;;21.83;9.27;;;8.80;99.90;;;8.69;83.72;101626.72;5073094;28;20544;-78
2020/12/21 04:37:14;;;;;;;20.35;9.07;;;8.70;99.90;;;8.55;84.39;101622.09;5073461;28;20051;-79
2020/12/21 04:39:42;;;;;;;20.92;8.85;;;8.60;99.90;;;8.53;84.41;101626.47;5071925;28;20562;-78
2020/12/21 04:42:09;;;;;;;24.67;9.60;;;8.50;99.90;;;8.40;84.93;101608.69;5073449;28;20040;-79
2020/12/21 04:44:36;;;;;;;20.95;9.55;;;8.50;99.90;;;8.30;85.53;101606.75;5073191;28;20500;-78
2020/12/21 04:47:06;;;;;;;21.38;9.73;;;8.30;99.90;;;8.29;85.66;101610.22;5071732;28;20441;-79
2020/12/21 04:49:34;;;;;;;25.45;9.57;;;8.30;99.90;;;8.47;86.03;101595.63;5072816;28;20044;-78
2020/12/21 04:52:06;;;;;;;24.50;9.77;;;8.40;99.90;;;8.61;85.46;101602.00;5072806;28;20040;-78
2020/12/21 04:54:34;;;;;;;28.95;10.00;;;8.50;99.90;;;8.74;84.87;101601.31;5073053;28;20045;-78
2020/12/21 04:57:02;;;;;;;19.92;9.40;;;8.60;99.90;;;8.78;84.93;101604.88;5072960;28;20125;-77
2020/12/21 04:59:29;;;;;;;27.05;9.35;;;8.70;99.90;;;8.88;84.14;101594.44;5072593;28;20128;-78
2020/12/21 05:01:56;;;;;;;23.15;8.50;;;8.80;99.90;;;8.77;83.98;101559.13;5072614;28;20068;-78
2020/12/21 05:04:25;;;;;;;20.30;9.38;;;8.80;99.90;;;9.07;84.06;101601.78;5071616;28;20056;-78
2020/12/21 05:06:54;;;;;;;19.70;9.55;;;8.90;99.90;;;9.09;83.23;101591.25;5072670;28;20072;-75
2020/12/21 05:09:22;;;;;;;16.85;8.13;;;9.00;99.90;;;8.51;83.26;101491.97;5072643;28;20048;-82
2020/12/21 05:11:56;;;;;;;22.55;9.88;;;9.00;99.90;;;9.00;83.08;101583.22;5072859;28;20082;-81
2020/12/21 05:14:34;;;;;;;25.75;10.25;;;9.00;99.90;;;9.00;83.36;101602.53;5072454;28;20090;-81
2020/12/21 05:17:12;;;;;;;21.80;9.70;;;8.90;99.90;;;8.97;83.28;101577.88;5072487;28;20040;-85
2020/12/21 05:19:40;;;;;;;17.98;9.30;;;9.00;99.90;;;7.03;84.11;101288.66;5071380;28;20052;-77
2020/12/21 05:22:14;;;;;;;21.45;9.70;;;8.80;99.90;;;8.94;84.24;101594.53;5072681;28;20119;-74
2020/12/21 05:24:44;;;;;;;24.35;9.20;;;8.80;99.90;;;8.90;84.37;101591.88;5072564;28;20048;-85
2020/12/21 05:27:17;;;;;;;23.45;10.13;;;8.80;99.90;;;8.79;84.96;101593.44;5071157;28;20117;-84
2020/12/21 05:29:53;;;;;;;20.05;9.35;;;8.80;99.90;;;8.79;84.90;101593.44;5072360;28;20102;-82
2020/12/21 05:32:21;;;;;;;25.92;9.05;;;8.70;99.90;;;8.80;84.85;101579.41;5072440;28;20079;-82
2020/12/21 05:34:49;;;;;;;23.02;9.93;;;8.80;99.90;;;8.79;84.85;101581.16;5072319;28;20040;-86
2020/12/21 05:37:18;;;;;;;28.35;10.93;;;8.80;99.90;;;8.68;85.76;101584.50;5072353;28;20048;-83
2020/12/21 05:39:51;;;;;;;21.60;9.60;;;8.70;99.90;;;8.78;86.12;101581.13;5072222;28;20505;-80
2020/12/21 05:42:20;;;;;;;21.42;9.85;;;8.70;99.90;;;8.64;85.70;101580.03;5072172;28;20299;-84
2020/12/21 05:44:56;;;;;;;21.17;9.77;;;8.70;99.90;;;8.72;85.71;101578.41;5072480;28;20093;-82
2020/12/21 05:47:26;;;;;;;22.92;9.95;;;8.70;99.90;;;8.79;85.94;101569.69;5072287;28;20052;-83
2020/12/21 05:49:56;;;;;;;22.67;10.70;;;8.70;99.90;;;8.79;86.17;101581.16;5071990;28;20513;-84
2020/12/21 05:52:32;;;;;;;29.48;9.85;;;8.80;99.90;;;8.88;85.53;101589.19;5072105;28;20044;-82
2020/12/21 05:55:06;;;;;;;22.30;10.13;;;8.80;99.90;;;8.84;85.61;101597.06;5072092;28;20052;-83
2020/12/21 05:57:36;;;;;;;20.98;9.25;;;8.80;99.90;;;8.77;86.09;101606.63;5070974;28;20052;-83
2020/12/21 06:00:06;;;;;;;22.77;9.98;;;8.80;99.90;;;8.83;85.84;101597.91;5072123;28;20048;-83
2020/12/21 06:02:34;;;;;;;21.65;9.10;;;8.80;99.90;;;8.88;85.87;101593.59;5070841;28;20053;-82
2020/12/21 06:05:05;;;;;;;21.80;9.68;;;8.90;99.90;;;8.72;86.29;101583.69;5072154;28;20052;-83
2020/12/21 06:07:34;;;;;;;23.13;9.65;;;8.80;99.90;;;8.72;86.43;101562.59;5072184;28;20071;-79
2020/12/21 06:10:04;;;;;;;24.98;10.32;;;8.80;99.90;;;8.91;86.54;101577.78;5071689;28;20128;-83
2020/12/21 06:12:44;;;;;;;27.48;10.18;;;8.80;99.90;;;8.69;86.50;101550.22;5072182;28;20433;-82
2020/12/21 06:15:15;;;;;;;25.50;10.95;;;8.80;99.90;;;8.97;86.22;101583.16;5072071;28;20037;-82
2020/12/21 06:17:43;;;;;;;27.00;10.63;;;8.90;99.90;;;8.93;86.89;101566.41;5071835;28;20090;-82
2020/12/21 06:20:19;;;;;;;24.27;10.23;;;8.90;99.90;;;9.07;86.31;101567.47;5072019;28;20055;-81
2020/12/21 06:22:47;;;;;;;23.23;10.23;;;9.00;99.90;;;9.07;86.10;101564.84;5071870;28;20078;-82
2020/12/21 06:25:22;;;;;;;25.70;9.52;;;9.00;99.90;;;9.05;86.27;101561.28;5071798;28;20077;-80
2020/12/21 06:27:51;;;;;;;23.77;10.63;;;9.10;99.90;;;9.08;86.29;101565.69;5071696;28;20465;-81
2020/12/21 06:30:30;;;;;;;21.90;10.35;;;9.10;99.90;;;8.61;85.90;101466.63;5073625;28;20086;-82
2020/12/21 06:33:01;;;;;;;28.77;10.73;;;9.10;99.90;;;9.30;85.44;101586.22;5075742;28;20045;-83
2020/12/21 06:35:30;;;;;;;22.70;9.57;;;9.20;99.90;;;9.08;85.34;101552.50;5075709;28;20393;-81
2020/12/21 06:37:59;;;;;;;24.02;10.52;;;9.20;99.90;;;9.34;85.52;101584.50;5075491;28;20083;-83
2020/12/21 06:40:31;;;;;;;19.80;9.38;;;9.20;99.90;;;8.95;85.72;101532.13;5075276;28;20094;-82
2020/12/21 06:43:10;;;;;;;27.63;10.55;;;9.20;99.90;;;9.04;85.99;101559.50;5075579;28;20044;-84
2020/12/21 06:45:38;;;;;;;23.48;10.98;;;9.20;99.90;;;9.29;85.83;101576.53;5075468;28;20037;-82
2020/12/21 06:48:07;;;;;;;26.20;10.13;;;9.20;99.90;;;9.26;86.22;101581.78;5075386;28;20041;-81
2020/12/21 06:50:34;;;;;;;22.67;9.95;;;9.20;99.90;;;9.37;85.45;101579.28;5075371;28;20044;-83
2020/12/21 06:53:02;;;;;;;30.67;11.52;;;9.30;99.90;;;9.25;85.87;101572.09;5075034;28;20555;-79
2020/12/21 06:55:35;;;;;;;25.98;11.85;;;9.20;99.90;;;9.26;86.53;101562.41;5075315;28;20086;-82
2020/12/21 06:58:03;;;;;;;26.10;11.18;;;9.20;99.90;;;9.19;86.15;101542.09;5075452;28;20048;-82
2020/12/21 07:00:35;;;;;;;24.48;11.65;;;9.20;99.90;;;9.23;86.08;101565.91;5075473;28;20060;-83
2020/12/21 07:03:03;;;;;;;32.05;10.85;;;9.10;99.90;;;9.14;86.63;101562.28;5074898;28;20041;-83
2020/12/21 07:05:30;;;;;;;26.83;11.65;;;9.10;99.90;;;8.92;86.97;101525.03;5074767;28;20041;-83
2020/12/21 07:07:59;;;;;;;27.80;10.32;;;9.10;99.90;;;9.13;86.77;101537.63;5074955;28;20037;-83
2020/12/21 07:10:30;;;;;;;22.38;10.88;;;9.10;99.90;;;8.53;86.88;101439.28;5074722;28;20450;-82
2020/12/21 07:12:58;;;;;;;23.88;10.88;;;9.00;99.90;;;9.18;87.17;101541.19;5075019;28;20040;-84
2020/12/21 07:15:25;;;;;;;24.15;11.10;;;9.10;99.90;;;9.25;87.12;101553.63;5074882;28;20041;-83
2020/12/21 07:17:54;;;;;;;28.83;11.63;;;9.10;99.90;;;9.27;86.98;101545.72;5074806;28;20049;-84
2020/12/21 07:20:22;;;;;;;23.33;10.98;;;9.10;99.90;;;9.17;86.85;101523.63;5074816;28;20135;-83
2020/12/21 07:22:50;;;;;;;27.27;10.75;;;9.20;99.90;;;9.28;87.09;101545.72;5074684;28;20045;-81
2020/12/21 07:25:17;;;;;;;23.00;10.82;;;9.20;99.90;;;9.40;86.75;101537.97;5074537;28;20037;-83
2020/12/21 07:27:48;;;;;;;19.63;11.13;;;9.30;99.90;;;9.46;86.42;101548.59;5074524;28;20114;-82
2020/12/21 07:30:15;;;;;;;;;;;9.30;99.90;;;9.48;86.41;101536.28;5074819;28;20104;-80
2020/12/21 07:32:43;;;;;;;28.10;11.65;;;9.40;99.90;;;9.26;86.54;101523.72;5107289;28;19925;-81
2020/12/21 07:35:13;;;;;;;26.13;11.93;;;9.40;99.90;;;9.34;87.18;101537.00;5074536;28;20044;-81
2020/12/21 07:38:12;;;;;;;26.70;12.82;;;9.30;99.90;;;9.28;87.52;101521.06;5073288;28;20063;-83
2020/12/21 07:40:43;;;;;;;25.02;11.57;;;9.20;99.90;;;9.23;87.50;101523.69;5074087;28;20040;-82
2020/12/21 07:43:22;;;;;;;27.63;13.18;;;9.20;99.90;;;9.28;87.49;101513.16;5075035;28;20048;-82
2020/12/21 07:45:52;;;;;;;27.40;12.20;;;9.20;99.90;;;9.44;86.95;101518.63;5073002;28;20505;-81
2020/12/21 07:48:20;;;;;;;26.25;13.00;;;9.30;99.90;;;9.12;87.47;101483.06;5073983;28;20041;-81
2020/12/21 07:50:49;;;;;;;29.20;12.70;;;9.30;99.90;;;9.46;87.45;101521.28;5074218;28;20036;-82
2020/12/21 07:53:19;;;;;;;23.30;12.27;;;9.30;99.90;;;9.43;87.24;101524.78;5074458;28;20040;-82
2020/12/21 07:56:01;;;;;;;26.55;12.02;;;9.30;99.90;;;9.42;87.19;101520.38;5074310;28;20044;-81
2020/12/21 07:58:34;;;;;;;24.25;12.93;;;9.30;99.90;;;9.35;87.52;101509.75;5072660;28;20490;-81
2020/12/21 08:01:03;;;;;;;26.45;13.20;;;9.30;99.90;;;9.29;87.54;101531.66;5074250;28;20090;-84
2020/12/21 08:03:31;;;;;;;22.60;11.95;;;9.30;99.90;;;9.25;88.33;101511.41;5073550;28;20083;-81
2020/12/21 08:06:08;;;;;;;26.08;13.43;;;9.20;99.90;;;9.26;88.37;101514.91;5073477;28;20041;-81
2020/12/21 08:08:36;;;;;;;31.42;12.75;;;9.20;99.90;;;9.29;88.68;101492.06;5073594;28;20040;-80
2020/12/21 08:11:06;;;;;;;29.20;14.40;;;9.20;99.90;;;9.27;88.53;101498.19;5073749;28;20127;-79
2020/12/21 08:13:35;;;;;;;26.53;13.10;;;9.20;99.90;;;9.12;89.41;101490.97;5073551;28;20051;-81
2020/12/21 08:16:08;;;;;;;24.60;12.40;;;9.10;99.90;;;9.06;89.24;101483.88;5073560;28;20041;-82
2020/12/21 08:18:36;;;;;;;29.13;12.70;;;9.10;99.90;;;9.17;89.70;101502.50;5073632;28;20094;-80
2020/12/21 08:21:06;;;;;;;28.10;13.23;;;9.10;99.90;;;7.07;89.19;101127.41;5073512;28;20147;-79
2020/12/21 08:23:33;;;;;;;29.95;13.13;;;9.10;99.90;;;9.15;89.87;101487.50;5073085;28;20486;-79
2020/12/21 08:26:01;;;;;;;25.90;13.80;;;9.10;99.90;;;9.10;90.27;101480.41;5073102;28;20113;-78
2020/12/21 08:28:36;;;;;;;31.60;12.75;;;9.10;99.90;;;9.17;90.63;101467.28;5073104;28;20482;-79
2020/12/21 08:31:25;;;;;;;29.67;13.88;;;9.10;99.90;;;9.15;91.11;101476.94;5071775;28;20391;-80
2020/12/21 08:34:01;;;;;;;30.90;14.57;;;9.10;99.90;;;9.00;91.14;101483.81;5073385;28;20052;-79
2020/12/21 08:36:33;;;;;;;31.17;14.52;;;9.00;99.90;;;8.99;92.14;101462.69;5073277;28;20083;-80
2020/12/21 08:39:10;;;;;;;26.35;15.05;;;9.00;99.90;;;9.05;92.39;101475.97;5073343;28;20413;-81
2020/12/21 08:41:41;;;;;;;30.80;15.77;;;9.00;99.90;;;9.10;92.22;101479.53;5072696;28;20045;-80
2020/12/21 08:44:15;;;;;;;31.73;16.17;;;9.10;99.90;;;8.65;92.48;101410.44;5072862;28;20036;-80
2020/12/21 08:46:46;;;;;;;27.27;15.32;;;9.00;99.90;;;9.07;92.36;101461.03;5071647;28;20063;-82
2020/12/21 08:49:14;;;;;;;27.27;14.27;;;9.10;99.90;;;9.09;92.25;101467.22;5072660;28;20123;-81
2020/12/21 08:51:44;;;;;;;25.02;14.20;;;9.10;99.90;;;9.13;91.97;101461.09;5072566;28;20134;-79
2020/12/21 08:54:11;;;;;;;26.73;14.55;;;9.10;99.90;;;8.93;92.43;101437.13;5072599;28;20502;-83
2020/12/21 08:56:39;;;;;;;29.83;14.30;;;9.10;99.90;;;9.11;91.77;101444.38;5073122;28;20644;-81
2020/12/21 08:59:06;;;;;;;30.08;13.75;;;9.10;99.90;;;9.25;91.94;101457.72;5072844;28;20040;-83
2020/12/21 09:01:33;;;;;;;24.88;14.25;;;9.20;99.90;;;9.14;91.51;101441.75;5071555;28;20094;-80
2020/12/21 09:04:01;;;;;;;24.85;14.18;;;9.10;99.90;;;9.13;92.22;101463.75;5072735;28;20048;-83
2020/12/21 09:06:29;;;;;;;26.90;14.90;;;9.10;99.90;;;8.87;92.02;101409.78;5071148;28;20052;-82
2020/12/21 09:09:01;;;;;;;26.63;13.82;;;9.00;99.90;;;8.95;92.39;101400.22;5072734;28;20055;-82
2020/12/21 09:11:29;;;;;;;26.40;14.20;;;9.00;99.90;;;8.98;92.04;101426.66;5072533;28;20048;-81
2020/12/21 09:13:57;;;;;;;27.63;14.30;;;8.90;99.90;;;8.96;92.83;101417.81;5072860;28;20440;-82
2020/12/21 09:16:27;;;;;;;23.85;14.27;;;8.90;99.90;;;8.95;92.49;101392.28;5072385;28;20044;-82
2020/12/21 09:18:56;;;;;;;27.92;13.93;;;9.00;99.90;;;9.09;92.92;101425.00;5072628;28;20044;-82
2020/12/21 09:21:26;;;;;;;24.67;13.63;;;9.00;99.90;;;9.09;92.42;101415.34;5072667;28;20044;-82
2020/12/21 09:23:56;;;;;;;24.98;14.15;;;9.00;99.90;;;8.93;92.36;101429.22;5071180;28;20632;-82
2020/12/21 09:26:25;;;;;;;25.33;14.05;;;8.90;99.90;;;8.67;92.79;101377.91;5071177;28;20478;-80
2020/12/21 09:28:55;;;;;;;23.27;14.25;;;8.90;99.90;;;8.97;92.74;101414.31;5072493;28;20132;-80
2020/12/21 09:31:23;;;;;;;27.65;14.43;;;8.90;99.90;;;8.96;93.23;101412.56;5072368;28;20049;-81
2020/12/21 09:33:52;;;;;;;30.27;14.82;;;8.90;99.90;;;8.86;93.22;101411.56;5072599;28;20383;-81
2020/12/21 09:36:20;;;;;;;31.30;14.65;;;8.80;99.90;;;8.80;93.75;101407.97;5072253;28;20498;-80
2020/12/21 09:38:48;;;;;;;29.10;13.82;;;8.90;99.90;;;8.86;94.05;101410.69;5072376;28;20071;-78
2020/12/21 09:41:19;;;;;;;33.65;15.65;;;8.80;99.90;;;8.84;93.81;101409.78;5072260;28;20371;-81
2020/12/21 09:43:50;;;;;;;23.00;13.02;;;8.80;99.90;;;8.71;94.40;101400.81;5072436;28;20056;-79
2020/12/21 09:46:19;;;;;;;28.60;14.40;;;8.70;99.90;;;8.81;94.82;101412.34;5072491;28;20044;-79
2020/12/21 09:48:50;;;;;;;24.92;14.65;;;8.70;99.90;;;8.91;94.76;101403.69;5072231;28;20448;-82
2020/12/21 09:51:18;;;;;;;28.83;13.65;;;8.80;99.90;;;8.67;94.09;101350.69;5072173;28;20045;-80
2020/12/21 09:53:46;;;;;;;27.95;14.68;;;8.90;99.90;;;8.77;94.41;101381.53;5072300;28;20040;-83
2020/12/21 09:56:16;;;;;;;28.10;13.77;;;8.80;99.90;;;8.86;94.68;101379.91;5072286;28;20048;-81
2020/12/21 09:58:45;;;;;;;26.27;14.15;;;8.80;99.90;;;8.90;94.40;101399.28;5070975;28;20106;-80
2020/12/21 10:01:13;;;;;;;25.10;14.57;;;8.80;99.90;;;8.85;94.88;101366.69;5072297;28;20392;-84
2020/12/21 10:03:42;;;;;;;23.65;13.43;;;8.90;99.90;;;8.84;95.05;101380.75;5074214;28;20045;-83
2020/12/21 10:06:11;;;;;;;23.80;12.32;;;8.80;99.90;;;8.77;95.13;101368.34;5074849;28;20541;-81
2020/12/21 10:08:40;;;;;;;24.08;12.27;;;8.80;99.90;;;8.86;95.30;101442.31;5076444;28;20122;-80
2020/12/21 10:11:08;;;;;;;20.67;12.85;;;8.80;99.90;;;8.91;95.13;101358.84;5076064;28;20040;-84
2020/12/21 10:13:36;;;;;;;27.25;12.63;;;8.80;99.90;;;8.86;95.02;101357.91;5076079;28;20464;-81
2020/12/21 10:16:04;;;;;;;21.92;11.90;;;8.90;99.90;;;8.99;94.84;101344.88;5075890;28;20499;-83
2020/12/21 10:18:32;;;;;;;25.95;12.65;;;8.90;99.90;;;8.80;95.12;101295.44;5076021;28;20136;-82
2020/12/21 10:21:01;;;;;;;15.70;10.52;;;8.90;99.90;;;8.88;95.23;101329.81;5075628;28;20063;-83
2020/12/21 10:23:28;;;;;;;27.25;11.13;;;8.90;99.90;;;8.86;95.60;101308.69;5075849;28;20071;-82
2020/12/21 10:25:56;;;;;;;20.58;11.60;;;8.90;99.90;;;8.89;95.11;101310.44;5075459;28;20098;-80
2020/12/21 10:28:23;;;;;;;22.13;10.82;;;8.90;99.90;;;8.89;95.35;101292.88;5075457;28;20049;-82